sensor_id;sensor_type;location;lat;lon;timestamp;temperature;humidity
1570;DHT22;778;50.120;8.698;2023-03-14T00:01:10;11.30;99.90
1570;DHT22;778;50.120;8.698;2023-03-14T00:03:40;11.30;99.90
1570;DHT22;778;50.120;8.698;2023-03-14T00:06:09;11.20;99.90
1570;DHT22;778;50.120;8.698;2023-03-14T00:08:40;11.30;99.90
1570;DHT22;778;50.120;8.698;2023-03-14T00:11:10;11.30;99.90
1570;DHT22;778;50.120;8.698;2023-03-14T00:13:40;11.30;99.90
1570;DHT22;778;50.120;8.698;2023-03-14T00:16:11;11.30;99.90
1570;DHT22;778;50.120;8.698;2023-03-14T00:18:40;11.30;99.90
1570;DHT22;778;50.120;8.698;2023-03-14T00:21:09;11.30;99.90
1570;DHT22;778;50.120;8.698;2023-03-14T00:23:41;11.30;99.90
1570;DHT22;778;50.120;8.698;2023-03-14T00:26:12;11.30;99.90
1570;DHT22;778;50.120;8.698;2023-03-14T00:28:41;11.30;99.90
1570;DHT22;778;50.120;8.698;2023-03-14T00:31:13;11.30;99.90
1570;DHT22;778;50.120;8.698;2023-03-14T00:33:44;11.30;99.90
1570;DHT22;778;50.120;8.698;2023-03-14T00:36:14;11.30;99.90
1570;DHT22;778;50.120;8.698;2023-03-14T00:38:47;11.30;99.90
1570;DHT22;778;50.120;8.698;2023-03-14T00:41:19;11.30;99.90
1570;DHT22;778;50.120;8.698;2023-03-14T00:43:49;11.30;99.90
1570;DHT22;778;50.120;8.698;2023-03-14T00:46:19;11.20;99.90
1570;DHT22;778;50.120;8.698;2023-03-14T00:48:48;11.20;99.90
1570;DHT22;778;50.120;8.698;2023-03-14T00:51:16;11.20;99.90
1570;DHT22;778;50.120;8.698;2023-03-14T00:53:46;11.20;99.90
1570;DHT22;778;50.120;8.698;2023-03-14T00:56:15;11.20;99.90
1570;DHT22;778;50.120;8.698;2023-03-14T00:58:43;11.20;99.90
1570;DHT22;778;50.120;8.698;2023-03-14T01:01:14;11.20;99.90
1570;DHT22;778;50.120;8.698;2023-03-14T01:03:44;11.20;99.90
1570;DHT22;778;50.120;8.698;2023-03-14T01:06:17;11.20;99.90
1570;DHT22;778;50.120;8.698;2023-03-14T01:08:49;11.30;99.90
1570;DHT22;778;50.120;8.698;2023-03-14T01:11:19;11.20;99.90
1570;DHT22;778;50.120;8.698;2023-03-14T01:13:50;11.20;99.90
1570;DHT22;778;50.120;8.698;2023-03-14T01:16:20;11.20;99.90
1570;DHT22;778;50.120;8.698;2023-03-14T01:18:50;11.20;99.90
1570;DHT22;778;50.120;8.698;2023-03-14T01:21:21;11.20;99.90
1570;DHT22;778;50.120;8.698;2023-03-14T01:23:52;11.20;99.90
1570;DHT22;778;50.120;8.698;2023-03-14T01:26:23;11.20;99.90
1570;DHT22;778;50.120;8.698;2023-03-14T01:28:54;11.20;99.90
1570;DHT22;778;50.120;8.698;2023-03-14T01:31:25;11.20;99.90
1570;DHT22;778;50.120;8.698;2023-03-14T01:33:54;11.20;99.90
1570;DHT22;778;50.120;8.698;2023-03-14T01:36:22;11.20;99.90
1570;DHT22;778;50.120;8.698;2023-03-14T01:38:52;11.20;99.90
1570;DHT22;778;50.120;8.698;2023-03-14T01:41:23;11.20;99.90
1570;DHT22;778;50.120;8.698;2023-03-14T01:43:55;11.20;99.90
1570;DHT22;778;50.120;8.698;2023-03-14T01:46:28;11.30;99.90
1570;DHT22;778;50.120;8.698;2023-03-14T01:49:04;11.20;99.90
1570;DHT22;778;50.120;8.698;2023-03-14T01:51:40;11.30;99.90
1570;DHT22;778;50.120;8.698;2023-03-14T01:54:19;11.30;99.90
1570;DHT22;778;50.120;8.698;2023-03-14T01:56:52;11.30;99.90
1570;DHT22;778;50.120;8.698;2023-03-14T01:59:21;11.30;99.90
1570;DHT22;778;50.120;8.698;2023-03-14T02:01:51;11.30;99.90
1570;DHT22;778;50.120;8.698;2023-03-14T02:04:20;11.30;99.90
1570;DHT22;778;50.120;8.698;2023-03-14T02:06:53;11.30;99.90
1570;DHT22;778;50.120;8.698;2023-03-14T02:09:30;11.30;99.90
1570;DHT22;778;50.120;8.698;2023-03-14T02:11:59;11.30;99.90
1570;DHT22;778;50.120;8.698;2023-03-14T02:14:48;11.30;99.90
1570;DHT22;778;50.120;8.698;2023-03-14T02:17:27;11.30;99.90
1570;DHT22;778;50.120;8.698;2023-03-14T02:20:29;11.30;99.90
1570;DHT22;778;50.120;8.698;2023-03-14T02:23:01;11.30;99.90
1570;DHT22;778;50.120;8.698;2023-03-14T02:25:39;11.30;99.90
1570;DHT22;778;50.120;8.698;2023-03-14T02:28:10;11.30;99.90
1570;DHT22;778;50.120;8.698;2023-03-14T02:30:40;11.30;99.90
1570;DHT22;778;50.120;8.698;2023-03-14T02:33:10;11.30;99.90
1570;DHT22;778;50.120;8.698;2023-03-14T02:35:45;11.30;99.90
1570;DHT22;778;50.120;8.698;2023-03-14T02:38:19;11.30;99.90
1570;DHT22;778;50.120;8.698;2023-03-14T02:40:50;11.30;99.90
1570;DHT22;778;50.120;8.698;2023-03-14T02:43:20;11.30;99.90
1570;DHT22;778;50.120;8.698;2023-03-14T02:45:55;11.30;99.90
1570;DHT22;778;50.120;8.698;2023-03-14T02:48:25;11.30;99.90
1570;DHT22;778;50.120;8.698;2023-03-14T02:50:57;11.30;99.90
1570;DHT22;778;50.120;8.698;2023-03-14T02:53:30;11.30;99.90
1570;DHT22;778;50.120;8.698;2023-03-14T02:56:06;11.30;99.90
1570;DHT22;778;50.120;8.698;2023-03-14T02:58:38;11.40;99.90
1570;DHT22;778;50.120;8.698;2023-03-14T03:01:18;11.30;99.90
1570;DHT22;778;50.120;8.698;2023-03-14T03:03:46;11.30;99.90
1570;DHT22;778;50.120;8.698;2023-03-14T03:06:15;11.30;99.90
1570;DHT22;778;50.120;8.698;2023-03-14T03:08:44;11.30;99.90
1570;DHT22;778;50.120;8.698;2023-03-14T03:11:12;11.30;99.90
1570;DHT22;778;50.120;8.698;2023-03-14T03:13:42;11.30;99.90
1570;DHT22;778;50.120;8.698;2023-03-14T03:16:12;11.30;99.90
1570;DHT22;778;50.120;8.698;2023-03-14T03:18:42;11.30;99.90
1570;DHT22;778;50.120;8.698;2023-03-14T03:21:10;11.30;99.90
1570;DHT22;778;50.120;8.698;2023-03-14T03:23:39;11.30;99.90
1570;DHT22;778;50.120;8.698;2023-03-14T03:26:09;11.30;99.90
1570;DHT22;778;50.120;8.698;2023-03-14T03:28:38;11.30;99.90
1570;DHT22;778;50.120;8.698;2023-03-14T03:31:09;11.30;99.90
1570;DHT22;778;50.120;8.698;2023-03-14T03:33:38;11.30;99.90
1570;DHT22;778;50.120;8.698;2023-03-14T03:36:08;11.30;99.90
1570;DHT22;778;50.120;8.698;2023-03-14T03:38:39;11.30;99.90
1570;DHT22;778;50.120;8.698;2023-03-14T03:41:08;11.30;99.90
1570;DHT22;778;50.120;8.698;2023-03-14T03:43:37;11.30;99.90
1570;DHT22;778;50.120;8.698;2023-03-14T03:46:09;11.30;99.90
1570;DHT22;778;50.120;8.698;2023-03-14T03:48:38;11.30;99.90
1570;DHT22;778;50.120;8.698;2023-03-14T03:51:07;11.30;99.90
1570;DHT22;778;50.120;8.698;2023-03-14T03:53:40;11.30;99.90
1570;DHT22;778;50.120;8.698;2023-03-14T03:56:12;11.20;99.90
1570;DHT22;778;50.120;8.698;2023-03-14T03:58:42;11.20;99.90
1570;DHT22;778;50.120;8.698;2023-03-14T04:01:11;11.20;99.90
1570;DHT22;778;50.120;8.698;2023-03-14T04:03:40;11.20;99.90
1570;DHT22;778;50.120;8.698;2023-03-14T04:06:10;11.20;99.90
1570;DHT22;778;50.120;8.698;2023-03-14T04:08:42;11.20;99.90
1570;DHT22;778;50.120;8.698;2023-03-14T04:11:23;11.20;99.90
1570;DHT22;778;50.120;8.698;2023-03-14T04:13:56;11.20;99.90
1570;DHT22;778;50.120;8.698;2023-03-14T04:16:26;11.20;99.90
1570;DHT22;778;50.120;8.698;2023-03-14T04:19:01;11.20;99.90
1570;DHT22;778;50.120;8.698;2023-03-14T04:21:31;11.20;99.90
1570;DHT22;778;50.120;8.698;2023-03-14T04:24:00;11.20;99.90
1570;DHT22;778;50.120;8.698;2023-03-14T04:26:31;11.20;99.90
1570;DHT22;778;50.120;8.698;2023-03-14T04:29:00;11.30;99.90
1570;DHT22;778;50.120;8.698;2023-03-14T04:31:30;11.30;99.90
1570;DHT22;778;50.120;8.698;2023-03-14T04:33:58;11.30;99.90
1570;DHT22;778;50.120;8.698;2023-03-14T04:36:42;11.30;99.90
1570;DHT22;778;50.120;8.698;2023-03-14T04:39:15;11.30;99.90
1570;DHT22;778;50.120;8.698;2023-03-14T04:41:51;11.30;99.90
1570;DHT22;778;50.120;8.698;2023-03-14T04:44:20;11.30;99.90
1570;DHT22;778;50.120;8.698;2023-03-14T04:46:52;11.30;99.90
1570;DHT22;778;50.120;8.698;2023-03-14T04:49:21;11.30;99.90
1570;DHT22;778;50.120;8.698;2023-03-14T04:51:49;11.30;99.90
1570;DHT22;778;50.120;8.698;2023-03-14T04:54:20;11.30;99.90
1570;DHT22;778;50.120;8.698;2023-03-14T04:56:52;11.30;99.90
1570;DHT22;778;50.120;8.698;2023-03-14T04:59:21;11.30;99.90
1570;DHT22;778;50.120;8.698;2023-03-14T05:01:53;11.30;99.90
1570;DHT22;778;50.120;8.698;2023-03-14T05:04:40;11.30;99.90
1570;DHT22;778;50.120;8.698;2023-03-14T05:07:21;11.30;99.90
1570;DHT22;778;50.120;8.698;2023-03-14T05:10:10;11.30;99.90
1570;DHT22;778;50.120;8.698;2023-03-14T05:12:42;11.30;99.90
1570;DHT22;778;50.120;8.698;2023-03-14T05:15:39;11.30;99.90
1570;DHT22;778;50.120;8.698;2023-03-14T05:18:27;11.30;99.90
1570;DHT22;778;50.120;8.698;2023-03-14T05:21:11;11.20;99.90
1570;DHT22;778;50.120;8.698;2023-03-14T05:24:18;11.30;99.90
1570;DHT22;778;50.120;8.698;2023-03-14T05:27:05;11.30;99.90
1570;DHT22;778;50.120;8.698;2023-03-14T05:29:52;11.30;99.90
1570;DHT22;778;50.120;8.698;2023-03-14T05:32:20;11.30;99.90
1570;DHT22;778;50.120;8.698;2023-03-14T05:35:14;11.30;99.90
1570;DHT22;778;50.120;8.698;2023-03-14T05:37:52;11.30;99.90
1570;DHT22;778;50.120;8.698;2023-03-14T05:40:23;11.30;99.90
1570;DHT22;778;50.120;8.698;2023-03-14T05:43:09;11.30;99.90
1570;DHT22;778;50.120;8.698;2023-03-14T05:46:07;11.30;99.90
1570;DHT22;778;50.120;8.698;2023-03-14T05:48:48;11.30;99.90
1570;DHT22;778;50.120;8.698;2023-03-14T05:51:32;11.30;99.90
1570;DHT22;778;50.120;8.698;2023-03-14T05:54:18;11.30;99.90
1570;DHT22;778;50.120;8.698;2023-03-14T05:57:06;11.30;99.90
1570;DHT22;778;50.120;8.698;2023-03-14T05:59:57;11.30;99.90
1570;DHT22;778;50.120;8.698;2023-03-14T06:02:52;11.30;99.90
1570;DHT22;778;50.120;8.698;2023-03-14T06:05:26;11.30;99.90
1570;DHT22;778;50.120;8.698;2023-03-14T06:08:00;11.30;99.90
1570;DHT22;778;50.120;8.698;2023-03-14T06:10:31;11.20;99.90
1570;DHT22;778;50.120;8.698;2023-03-14T06:12:59;11.20;99.90
1570;DHT22;778;50.120;8.698;2023-03-14T06:15:28;11.20;99.90
1570;DHT22;778;50.120;8.698;2023-03-14T06:17:57;11.30;99.90
1570;DHT22;778;50.120;8.698;2023-03-14T06:20:26;11.20;99.90
1570;DHT22;778;50.120;8.698;2023-03-14T06:22:55;11.30;99.90
1570;DHT22;778;50.120;8.698;2023-03-14T06:25:25;11.30;99.90
1570;DHT22;778;50.120;8.698;2023-03-14T06:27:54;11.30;99.90
1570;DHT22;778;50.120;8.698;2023-03-14T06:30:23;11.30;99.90
1570;DHT22;778;50.120;8.698;2023-03-14T06:32:52;11.30;99.90
1570;DHT22;778;50.120;8.698;2023-03-14T06:35:22;11.30;99.90
1570;DHT22;778;50.120;8.698;2023-03-14T06:37:51;11.30;99.90
1570;DHT22;778;50.120;8.698;2023-03-14T06:40:20;11.30;99.90
1570;DHT22;778;50.120;8.698;2023-03-14T06:43:18;11.30;99.90
1570;DHT22;778;50.120;8.698;2023-03-14T06:45:47;11.30;99.90
1570;DHT22;778;50.120;8.698;2023-03-14T06:48:15;11.30;99.90
1570;DHT22;778;50.120;8.698;2023-03-14T06:50:50;11.20;99.90
1570;DHT22;778;50.120;8.698;2023-03-14T06:53:20;11.20;99.90
1570;DHT22;778;50.120;8.698;2023-03-14T06:55:50;11.20;99.90
1570;DHT22;778;50.120;8.698;2023-03-14T06:58:20;11.20;99.90
1570;DHT22;778;50.120;8.698;2023-03-14T07:00:49;11.30;99.90
1570;DHT22;778;50.120;8.698;2023-03-14T07:03:23;11.30;99.90
1570;DHT22;778;50.120;8.698;2023-03-14T07:05:54;11.30;99.90
1570;DHT22;778;50.120;8.698;2023-03-14T07:08:22;11.20;99.90
1570;DHT22;778;50.120;8.698;2023-03-14T07:10:50;11.30;99.90
1570;DHT22;778;50.120;8.698;2023-03-14T07:13:20;11.30;99.90
1570;DHT22;778;50.120;8.698;2023-03-14T07:15:55;11.30;99.90
1570;DHT22;778;50.120;8.698;2023-03-14T07:18:24;11.30;99.90
1570;DHT22;778;50.120;8.698;2023-03-14T07:20:52;11.30;99.90
1570;DHT22;778;50.120;8.698;2023-03-14T07:23:21;11.30;99.90
1570;DHT22;778;50.120;8.698;2023-03-14T07:25:52;11.30;99.90
1570;DHT22;778;50.120;8.698;2023-03-14T07:28:24;11.40;99.90
1570;DHT22;778;50.120;8.698;2023-03-14T07:31:16;11.40;99.90
1570;DHT22;778;50.120;8.698;2023-03-14T07:33:46;11.30;99.90
1570;DHT22;778;50.120;8.698;2023-03-14T07:36:14;11.40;99.90
1570;DHT22;778;50.120;8.698;2023-03-14T07:38:44;11.40;99.90
1570;DHT22;778;50.120;8.698;2023-03-14T07:41:31;11.60;99.90
1570;DHT22;778;50.120;8.698;2023-03-14T07:44:27;12.60;99.90
1570;DHT22;778;50.120;8.698;2023-03-14T07:46:55;12.10;99.90
1570;DHT22;778;50.120;8.698;2023-03-14T07:49:24;11.90;99.90
1570;DHT22;778;50.120;8.698;2023-03-14T07:51:52;11.80;99.90
1570;DHT22;778;50.120;8.698;2023-03-14T07:54:21;11.70;99.90
1570;DHT22;778;50.120;8.698;2023-03-14T07:56:50;11.70;99.90
1570;DHT22;778;50.120;8.698;2023-03-14T07:59:19;11.70;99.90
1570;DHT22;778;50.120;8.698;2023-03-14T08:01:50;11.70;99.90
1570;DHT22;778;50.120;8.698;2023-03-14T08:04:18;11.70;99.90
1570;DHT22;778;50.120;8.698;2023-03-14T08:06:46;11.70;99.90
1570;DHT22;778;50.120;8.698;2023-03-14T08:09:15;11.70;99.90
1570;DHT22;778;50.120;8.698;2023-03-14T08:11:43;11.70;99.90
1570;DHT22;778;50.120;8.698;2023-03-14T08:14:11;11.70;99.90
1570;DHT22;778;50.120;8.698;2023-03-14T08:16:40;11.70;99.90
1570;DHT22;778;50.120;8.698;2023-03-14T08:19:10;11.70;99.90
1570;DHT22;778;50.120;8.698;2023-03-14T08:21:38;11.70;99.90
1570;DHT22;778;50.120;8.698;2023-03-14T08:24:07;11.70;99.90
1570;DHT22;778;50.120;8.698;2023-03-14T08:26:35;11.80;99.90
1570;DHT22;778;50.120;8.698;2023-03-14T08:29:04;11.80;99.90
1570;DHT22;778;50.120;8.698;2023-03-14T08:31:32;11.70;99.90
1570;DHT22;778;50.120;8.698;2023-03-14T08:34:01;11.80;99.90
1570;DHT22;778;50.120;8.698;2023-03-14T08:36:31;11.80;99.90
1570;DHT22;778;50.120;8.698;2023-03-14T08:39:00;11.90;99.90
1570;DHT22;778;50.120;8.698;2023-03-14T08:41:30;11.90;99.90
1570;DHT22;778;50.120;8.698;2023-03-14T08:43:59;11.90;99.90
1570;DHT22;778;50.120;8.698;2023-03-14T08:46:27;11.90;99.90
1570;DHT22;778;50.120;8.698;2023-03-14T08:48:56;11.90;99.90
1570;DHT22;778;50.120;8.698;2023-03-14T08:51:24;11.90;99.90
1570;DHT22;778;50.120;8.698;2023-03-14T08:53:54;11.90;99.90
1570;DHT22;778;50.120;8.698;2023-03-14T08:56:22;11.90;99.90
1570;DHT22;778;50.120;8.698;2023-03-14T08:58:52;11.90;99.90
1570;DHT22;778;50.120;8.698;2023-03-14T09:01:20;12.00;99.90
1570;DHT22;778;50.120;8.698;2023-03-14T09:03:51;12.00;99.90
1570;DHT22;778;50.120;8.698;2023-03-14T09:06:19;12.00;99.90
1570;DHT22;778;50.120;8.698;2023-03-14T09:08:48;12.00;99.90
1570;DHT22;778;50.120;8.698;2023-03-14T09:11:17;12.00;99.90
1570;DHT22;778;50.120;8.698;2023-03-14T09:13:46;12.00;99.90
1570;DHT22;778;50.120;8.698;2023-03-14T09:16:15;12.10;99.90
1570;DHT22;778;50.120;8.698;2023-03-14T09:18:44;12.20;99.90
1570;DHT22;778;50.120;8.698;2023-03-14T09:21:12;12.20;99.90
1570;DHT22;778;50.120;8.698;2023-03-14T09:23:41;12.30;99.90
1570;DHT22;778;50.120;8.698;2023-03-14T09:26:12;12.30;99.90
1570;DHT22;778;50.120;8.698;2023-03-14T09:28:42;12.40;99.90
1570;DHT22;778;50.120;8.698;2023-03-14T09:31:11;12.50;99.90
1570;DHT22;778;50.120;8.698;2023-03-14T09:33:40;12.60;99.90
1570;DHT22;778;50.120;8.698;2023-03-14T09:36:09;12.60;99.90
1570;DHT22;778;50.120;8.698;2023-03-14T09:38:37;12.60;99.90
1570;DHT22;778;50.120;8.698;2023-03-14T09:41:14;12.70;99.90
1570;DHT22;778;50.120;8.698;2023-03-14T09:43:47;12.70;99.90
1570;DHT22;778;50.120;8.698;2023-03-14T09:46:18;12.70;99.90
1570;DHT22;778;50.120;8.698;2023-03-14T09:48:47;12.60;99.90
1570;DHT22;778;50.120;8.698;2023-03-14T09:51:17;12.60;99.90
1570;DHT22;778;50.120;8.698;2023-03-14T09:53:49;12.50;99.90
1570;DHT22;778;50.120;8.698;2023-03-14T09:56:20;12.40;99.90
1570;DHT22;778;50.120;8.698;2023-03-14T09:58:54;12.40;99.90
1570;DHT22;778;50.120;8.698;2023-03-14T10:01:26;12.40;99.90
1570;DHT22;778;50.120;8.698;2023-03-14T10:04:02;12.40;99.90
1570;DHT22;778;50.120;8.698;2023-03-14T10:06:33;12.30;99.90
1570;DHT22;778;50.120;8.698;2023-03-14T10:09:02;12.30;99.90
1570;DHT22;778;50.120;8.698;2023-03-14T10:11:32;12.20;99.90
1570;DHT22;778;50.120;8.698;2023-03-14T10:14:07;12.20;99.90
1570;DHT22;778;50.120;8.698;2023-03-14T10:16:40;12.30;99.90
1570;DHT22;778;50.120;8.698;2023-03-14T10:19:11;12.20;99.90
1570;DHT22;778;50.120;8.698;2023-03-14T10:21:42;12.20;99.90
1570;DHT22;778;50.120;8.698;2023-03-14T10:24:20;12.20;99.90
1570;DHT22;778;50.120;8.698;2023-03-14T10:26:52;12.30;99.90
1570;DHT22;778;50.120;8.698;2023-03-14T10:29:22;12.30;99.90
1570;DHT22;778;50.120;8.698;2023-03-14T10:31:53;12.30;99.90
1570;DHT22;778;50.120;8.698;2023-03-14T10:34:25;12.40;99.90
1570;DHT22;778;50.120;8.698;2023-03-14T10:36:56;12.30;99.90
1570;DHT22;778;50.120;8.698;2023-03-14T10:39:40;12.40;99.90
1570;DHT22;778;50.120;8.698;2023-03-14T10:42:19;12.40;99.90
1570;DHT22;778;50.120;8.698;2023-03-14T10:44:55;12.40;99.90
1570;DHT22;778;50.120;8.698;2023-03-14T10:47:26;12.30;99.90
1570;DHT22;778;50.120;8.698;2023-03-14T10:49:57;12.30;99.90
1570;DHT22;778;50.120;8.698;2023-03-14T10:52:52;12.30;99.90
1570;DHT22;778;50.120;8.698;2023-03-14T10:55:39;12.20;99.90
1570;DHT22;778;50.120;8.698;2023-03-14T10:58:23;12.20;99.90
1570;DHT22;778;50.120;8.698;2023-03-14T11:01:00;12.00;99.90
1570;DHT22;778;50.120;8.698;2023-03-14T11:03:35;12.00;99.90
1570;DHT22;778;50.120;8.698;2023-03-14T11:06:09;12.00;99.90
1570;DHT22;778;50.120;8.698;2023-03-14T11:08:45;12.00;99.90
1570;DHT22;778;50.120;8.698;2023-03-14T11:11:19;11.90;99.90
1570;DHT22;778;50.120;8.698;2023-03-14T11:13:58;11.90;99.90
1570;DHT22;778;50.120;8.698;2023-03-14T11:16:40;11.90;99.90
1570;DHT22;778;50.120;8.698;2023-03-14T11:19:32;11.80;99.90
1570;DHT22;778;50.120;8.698;2023-03-14T11:22:17;11.80;99.90
1570;DHT22;778;50.120;8.698;2023-03-14T11:25:00;11.70;99.90
1570;DHT22;778;50.120;8.698;2023-03-14T11:27:41;11.80;99.90
1570;DHT22;778;50.120;8.698;2023-03-14T11:30:18;11.80;99.90
1570;DHT22;778;50.120;8.698;2023-03-14T11:32:56;11.80;99.90
1570;DHT22;778;50.120;8.698;2023-03-14T11:35:30;11.80;99.90
1570;DHT22;778;50.120;8.698;2023-03-14T11:38:14;11.70;99.90
1570;DHT22;778;50.120;8.698;2023-03-14T11:40:48;11.70;99.90
1570;DHT22;778;50.120;8.698;2023-03-14T11:43:24;11.70;99.90
1570;DHT22;778;50.120;8.698;2023-03-14T11:46:01;11.80;99.90
1570;DHT22;778;50.120;8.698;2023-03-14T11:48:40;11.80;99.90
1570;DHT22;778;50.120;8.698;2023-03-14T11:51:17;11.80;99.90
1570;DHT22;778;50.120;8.698;2023-03-14T11:53:55;11.80;99.90
1570;DHT22;778;50.120;8.698;2023-03-14T11:56:31;11.90;99.90
1570;DHT22;778;50.120;8.698;2023-03-14T11:59:05;11.90;99.90
1570;DHT22;778;50.120;8.698;2023-03-14T12:01:50;11.90;99.90
1570;DHT22;778;50.120;8.698;2023-03-14T12:04:53;11.90;99.90
1570;DHT22;778;50.120;8.698;2023-03-14T12:07:50;11.90;99.90
1570;DHT22;778;50.120;8.698;2023-03-14T12:10:40;11.90;99.90
1570;DHT22;778;50.120;8.698;2023-03-14T12:13:14;11.90;99.90
1570;DHT22;778;50.120;8.698;2023-03-14T12:15:48;11.30;99.90
1570;DHT22;778;50.120;8.698;2023-03-14T12:18:20;10.70;99.90
1570;DHT22;778;50.120;8.698;2023-03-14T12:20:57;10.80;99.90
1570;DHT22;778;50.120;8.698;2023-03-14T12:23:33;10.60;99.90
1570;DHT22;778;50.120;8.698;2023-03-14T12:26:13;10.40;99.90
1570;DHT22;778;50.120;8.698;2023-03-14T12:28:48;10.40;99.90
1570;DHT22;778;50.120;8.698;2023-03-14T12:31:41;10.40;99.90
1570;DHT22;778;50.120;8.698;2023-03-14T12:34:28;10.40;99.90
1570;DHT22;778;50.120;8.698;2023-03-14T12:37:19;10.30;99.90
1570;DHT22;778;50.120;8.698;2023-03-14T12:40:10;10.20;99.90
1570;DHT22;778;50.120;8.698;2023-03-14T12:42:56;10.10;99.90
1570;DHT22;778;50.120;8.698;2023-03-14T12:45:29;10.20;99.90
1570;DHT22;778;50.120;8.698;2023-03-14T12:48:06;10.30;99.90
1570;DHT22;778;50.120;8.698;2023-03-14T12:50:41;10.30;99.90
1570;DHT22;778;50.120;8.698;2023-03-14T12:53:39;10.40;99.90
1570;DHT22;778;50.120;8.698;2023-03-14T12:56:26;10.50;99.90
1570;DHT22;778;50.120;8.698;2023-03-14T12:59:26;10.70;99.90
1570;DHT22;778;50.120;8.698;2023-03-14T13:02:00;10.70;99.90
1570;DHT22;778;50.120;8.698;2023-03-14T13:04:33;10.70;99.90
1570;DHT22;778;50.120;8.698;2023-03-14T13:07:11;10.70;99.90
1570;DHT22;778;50.120;8.698;2023-03-14T13:10:03;10.70;99.90
1570;DHT22;778;50.120;8.698;2023-03-14T13:12:51;10.60;99.90
1570;DHT22;778;50.120;8.698;2023-03-14T13:15:26;10.60;99.90
1570;DHT22;778;50.120;8.698;2023-03-14T13:18:00;10.70;99.90
1570;DHT22;778;50.120;8.698;2023-03-14T13:20:32;10.80;99.90
1570;DHT22;778;50.120;8.698;2023-03-14T13:23:03;10.70;99.90
1570;DHT22;778;50.120;8.698;2023-03-14T13:25:35;10.70;99.90
1570;DHT22;778;50.120;8.698;2023-03-14T13:28:04;10.80;99.90
1570;DHT22;778;50.120;8.698;2023-03-14T13:30:39;10.90;99.90
1570;DHT22;778;50.120;8.698;2023-03-14T13:33:14;10.90;99.90
1570;DHT22;778;50.120;8.698;2023-03-14T13:35:45;11.00;99.90
1570;DHT22;778;50.120;8.698;2023-03-14T13:38:20;11.10;99.90
1570;DHT22;778;50.120;8.698;2023-03-14T13:40:53;11.00;99.90
1570;DHT22;778;50.120;8.698;2023-03-14T13:43:28;11.10;99.90
1570;DHT22;778;50.120;8.698;2023-03-14T13:46:03;11.10;99.90
1570;DHT22;778;50.120;8.698;2023-03-14T13:48:35;11.10;99.90
1570;DHT22;778;50.120;8.698;2023-03-14T13:51:11;11.20;99.90
1570;DHT22;778;50.120;8.698;2023-03-14T13:53:44;11.10;99.90
1570;DHT22;778;50.120;8.698;2023-03-14T13:56:15;11.00;99.90
1570;DHT22;778;50.120;8.698;2023-03-14T13:58:45;11.00;99.90
1570;DHT22;778;50.120;8.698;2023-03-14T14:01:16;10.90;99.90
1570;DHT22;778;50.120;8.698;2023-03-14T14:03:49;10.90;99.90
1570;DHT22;778;50.120;8.698;2023-03-14T14:06:27;10.90;99.90
1570;DHT22;778;50.120;8.698;2023-03-14T14:09:00;10.80;99.90
1570;DHT22;778;50.120;8.698;2023-03-14T14:11:46;10.80;99.90
1570;DHT22;778;50.120;8.698;2023-03-14T14:14:38;10.70;99.90
1570;DHT22;778;50.120;8.698;2023-03-14T14:17:11;10.50;99.90
1570;DHT22;778;50.120;8.698;2023-03-14T14:19:41;10.40;99.90
1570;DHT22;778;50.120;8.698;2023-03-14T14:22:10;10.40;99.90
1570;DHT22;778;50.120;8.698;2023-03-14T14:24:39;10.40;99.90
1570;DHT22;778;50.120;8.698;2023-03-14T14:27:14;10.50;99.90
1570;DHT22;778;50.120;8.698;2023-03-14T14:29:57;10.60;99.90
1570;DHT22;778;50.120;8.698;2023-03-14T14:32:35;10.40;99.90
1570;DHT22;778;50.120;8.698;2023-03-14T14:35:05;10.40;99.90
1570;DHT22;778;50.120;8.698;2023-03-14T14:37:41;10.10;99.90
1570;DHT22;778;50.120;8.698;2023-03-14T14:40:17;9.60;99.90
1570;DHT22;778;50.120;8.698;2023-03-14T14:42:49;9.30;99.90
1570;DHT22;778;50.120;8.698;2023-03-14T14:45:19;9.20;99.90
1570;DHT22;778;50.120;8.698;2023-03-14T14:47:50;9.20;99.90
1570;DHT22;778;50.120;8.698;2023-03-14T14:50:28;9.10;99.90
1570;DHT22;778;50.120;8.698;2023-03-14T14:52:58;9.20;99.90
1570;DHT22;778;50.120;8.698;2023-03-14T14:55:31;9.30;99.90
1570;DHT22;778;50.120;8.698;2023-03-14T14:58:18;9.30;99.90
1570;DHT22;778;50.120;8.698;2023-03-14T15:00:53;9.30;99.90
1570;DHT22;778;50.120;8.698;2023-03-14T15:03:27;9.10;99.90
1570;DHT22;778;50.120;8.698;2023-03-14T15:05:58;9.00;99.90
1570;DHT22;778;50.120;8.698;2023-03-14T15:08:27;9.10;99.90
1570;DHT22;778;50.120;8.698;2023-03-14T15:10:56;9.10;99.90
1570;DHT22;778;50.120;8.698;2023-03-14T15:13:26;9.00;99.90
1570;DHT22;778;50.120;8.698;2023-03-14T15:15:55;8.80;99.90
1570;DHT22;778;50.120;8.698;2023-03-14T15:18:25;8.70;99.90
1570;DHT22;778;50.120;8.698;2023-03-14T15:20:56;8.70;99.90
1570;DHT22;778;50.120;8.698;2023-03-14T15:23:25;8.80;99.90
1570;DHT22;778;50.120;8.698;2023-03-14T15:25:53;8.80;99.90
1570;DHT22;778;50.120;8.698;2023-03-14T15:28:24;8.80;99.90
1570;DHT22;778;50.120;8.698;2023-03-14T15:30:56;8.60;99.90
1570;DHT22;778;50.120;8.698;2023-03-14T15:33:26;8.60;99.90
1570;DHT22;778;50.120;8.698;2023-03-14T15:35:56;8.50;99.90
1570;DHT22;778;50.120;8.698;2023-03-14T15:38:25;8.40;99.90
1570;DHT22;778;50.120;8.698;2023-03-14T15:40:53;8.50;99.90
1570;DHT22;778;50.120;8.698;2023-03-14T15:43:22;8.50;99.90
1570;DHT22;778;50.120;8.698;2023-03-14T15:45:51;8.50;99.90
1570;DHT22;778;50.120;8.698;2023-03-14T15:48:21;8.50;99.90
1570;DHT22;778;50.120;8.698;2023-03-14T15:50:49;8.50;99.90
1570;DHT22;778;50.120;8.698;2023-03-14T15:53:18;8.50;99.90
1570;DHT22;778;50.120;8.698;2023-03-14T15:55:46;8.50;99.90
1570;DHT22;778;50.120;8.698;2023-03-14T15:58:16;8.70;99.90
1570;DHT22;778;50.120;8.698;2023-03-14T16:00:48;8.60;99.90
1570;DHT22;778;50.120;8.698;2023-03-14T16:03:18;8.60;99.90
1570;DHT22;778;50.120;8.698;2023-03-14T16:05:47;8.60;99.90
1570;DHT22;778;50.120;8.698;2023-03-14T16:08:15;8.60;99.90
1570;DHT22;778;50.120;8.698;2023-03-14T16:10:45;8.60;99.90
1570;DHT22;778;50.120;8.698;2023-03-14T16:13:14;8.60;99.90
1570;DHT22;778;50.120;8.698;2023-03-14T16:15:52;8.60;99.90
1570;DHT22;778;50.120;8.698;2023-03-14T16:18:23;8.50;99.90
1570;DHT22;778;50.120;8.698;2023-03-14T16:20:57;8.40;99.90
1570;DHT22;778;50.120;8.698;2023-03-14T16:23:27;8.30;99.90
1570;DHT22;778;50.120;8.698;2023-03-14T16:25:56;8.30;99.90
1570;DHT22;778;50.120;8.698;2023-03-14T16:28:25;8.40;99.90
1570;DHT22;778;50.120;8.698;2023-03-14T16:30:59;8.30;99.90
1570;DHT22;778;50.120;8.698;2023-03-14T16:33:30;8.40;99.90
1570;DHT22;778;50.120;8.698;2023-03-14T16:36:00;8.40;99.90
1570;DHT22;778;50.120;8.698;2023-03-14T16:38:32;8.30;99.90
1570;DHT22;778;50.120;8.698;2023-03-14T16:41:02;8.30;99.90
1570;DHT22;778;50.120;8.698;2023-03-14T16:43:32;8.30;99.90
1570;DHT22;778;50.120;8.698;2023-03-14T16:46:04;8.20;99.90
1570;DHT22;778;50.120;8.698;2023-03-14T16:48:34;8.30;99.90
1570;DHT22;778;50.120;8.698;2023-03-14T16:51:04;8.30;99.90
1570;DHT22;778;50.120;8.698;2023-03-14T16:53:33;8.20;99.90
1570;DHT22;778;50.120;8.698;2023-03-14T16:56:01;8.00;99.90
1570;DHT22;778;50.120;8.698;2023-03-14T16:58:30;8.10;99.90
1570;DHT22;778;50.120;8.698;2023-03-14T17:00:58;8.00;99.90